Terminal Aerodrome Forecast
Issued by NWS Upton, NY

Home | Current Version | Previous Version | Text Only | Print | Product List | Glossary On
Versions: 1 2 3 4 5 6 7 8 9 10 11 12 13 14 15 16 17 18 19 20 21 22 23 24 25 26 27 28 29 30
000
FTUS41 KOKX 022000 AAA
TAFLGA
TAF AMD
KLGA 022056Z 0221/0318 23011G17KT P6SM SCT050 BKN250
     FM030100 25009KT P6SM VCSH BKN050
      TEMPO 0302/0303 2SM -TSRA BKN040CB
     FM030500 28010KT P6SM SCT050 SCT150
     FM030900 32010KT P6SM SCT250=

USA.gov is the U.S. government's official web portal to all federal, state and local government web resources and services.